createdAt,value
2017-10-30T00:01:34.285Z,9.07
2017-10-30T00:04:06.816Z,9.04
2017-10-30T00:06:38.853Z,9.01
2017-10-30T00:09:14.159Z,8.98
2017-10-30T00:11:46.064Z,8.95
2017-10-30T00:14:18.711Z,8.97
2017-10-30T00:16:49.996Z,8.98
2017-10-30T00:19:23.851Z,8.98
2017-10-30T00:21:55.975Z,8.98
2017-10-30T00:24:28.700Z,8.97
2017-10-30T00:27:00.328Z,8.99
2017-10-30T00:29:31.708Z,9.03
2017-10-30T00:32:03.805Z,9.01
2017-10-30T00:34:35.152Z,9.01
2017-10-30T00:37:06.451Z,9.02
2017-10-30T00:39:37.734Z,9.00
2017-10-30T00:42:10.497Z,9.00
2017-10-30T00:44:42.702Z,8.94
2017-10-30T00:47:14.352Z,8.93
2017-10-30T00:49:45.991Z,8.88
2017-10-30T00:52:17.660Z,8.84
2017-10-30T00:54:49.085Z,8.82
2017-10-30T00:57:20.935Z,8.76
2017-10-30T00:59:52.261Z,8.73
2017-10-30T01:02:25.305Z,8.71
2017-10-30T01:04:57.335Z,8.71
2017-10-30T01:07:28.666Z,8.72
2017-10-30T01:10:00.209Z,8.72
2017-10-30T01:12:31.515Z,8.72
2017-10-30T01:15:03.568Z,8.72
2017-10-30T01:17:34.983Z,8.69
2017-10-30T01:20:09.500Z,8.67
2017-10-30T01:22:42.424Z,8.65
2017-10-30T01:25:13.777Z,8.61
2017-10-30T01:27:45.202Z,8.58
2017-10-30T01:30:16.903Z,8.57
2017-10-30T01:32:48.260Z,8.55
2017-10-30T01:35:19.740Z,8.54
2017-10-30T01:37:51.342Z,8.50
2017-10-30T01:40:23.761Z,8.47
2017-10-30T01:42:55.209Z,8.48
2017-10-30T01:45:27.496Z,8.46
2017-10-30T01:47:59.488Z,8.48
2017-10-30T01:50:30.816Z,8.44
2017-10-30T01:53:03.957Z,8.41
2017-10-30T01:55:35.738Z,8.39
2017-10-30T01:58:07.804Z,8.37
2017-10-30T02:00:39.104Z,8.37
2017-10-30T02:03:12.937Z,8.34
2017-10-30T02:05:44.712Z,8.31
2017-10-30T02:08:16.072Z,8.29
2017-10-30T02:10:47.689Z,8.25
2017-10-30T02:13:19.071Z,8.22
2017-10-30T02:15:50.388Z,8.19
2017-10-30T02:18:23.406Z,8.16
2017-10-30T02:20:54.963Z,8.16
2017-10-30T02:23:26.622Z,8.14
2017-10-30T02:25:58.037Z,8.10
2017-10-30T02:28:29.925Z,8.08
2017-10-30T02:31:02.242Z,8.05
2017-10-30T02:33:33.956Z,8.03
2017-10-30T02:36:06.653Z,8.04
2017-10-30T02:38:38.078Z,8.03
2017-10-30T02:41:09.863Z,8.02
2017-10-30T02:43:41.329Z,7.98
2017-10-30T02:46:13.583Z,7.96
2017-10-30T02:48:45.033Z,7.92
2017-10-30T02:51:17.497Z,7.89
2017-10-30T02:53:48.987Z,7.87
2017-10-30T02:56:22.248Z,7.86
2017-10-30T02:58:53.654Z,7.88
2017-10-30T03:01:25.954Z,7.87
2017-10-30T03:03:57.340Z,7.86
2017-10-30T03:06:29.421Z,7.86
2017-10-30T03:09:01.331Z,7.85
2017-10-30T03:11:32.649Z,7.81
2017-10-30T03:14:04.892Z,7.80
2017-10-30T03:16:37.539Z,7.79
2017-10-30T03:19:08.915Z,7.77
2017-10-30T03:21:41.438Z,7.80
2017-10-30T03:24:13.451Z,7.76
2017-10-30T03:26:44.997Z,7.74
2017-10-30T03:29:16.699Z,7.80
2017-10-30T03:31:48.072Z,7.80
2017-10-30T03:34:19.523Z,7.82
2017-10-30T03:36:50.923Z,7.82
2017-10-30T03:39:24.188Z,7.80
2017-10-30T03:41:55.601Z,7.81
2017-10-30T03:44:26.919Z,7.82
2017-10-30T03:46:58.535Z,7.82
2017-10-30T03:49:31.351Z,7.85
2017-10-30T03:52:02.862Z,7.83
2017-10-30T03:54:35.129Z,7.82
2017-10-30T03:57:06.450Z,7.84
2017-10-30T03:59:37.921Z,7.84
2017-10-30T04:02:09.525Z,7.85
2017-10-30T04:04:40.854Z,7.84
2017-10-30T04:07:12.218Z,7.84
2017-10-30T04:09:43.871Z,7.82
2017-10-30T04:12:15.209Z,7.82
2017-10-30T04:14:46.526Z,7.79
2017-10-30T04:17:17.869Z,7.78
2017-10-30T04:19:49.612Z,7.79
2017-10-30T04:22:23.019Z,7.76
2017-10-30T04:24:54.385Z,7.77
2017-10-30T04:27:26.603Z,7.76
2017-10-30T04:29:57.915Z,7.75
2017-10-30T04:32:29.883Z,7.75
2017-10-30T04:35:01.752Z,7.73
2017-10-30T04:37:33.077Z,7.72
2017-10-30T04:40:05.460Z,7.67
2017-10-30T04:42:37.066Z,7.64
2017-10-30T04:45:08.529Z,7.62
2017-10-30T04:47:40.516Z,7.61
2017-10-30T04:50:12.124Z,7.63
2017-10-30T04:52:44.203Z,7.61
2017-10-30T04:55:15.788Z,7.59
2017-10-30T04:57:47.383Z,7.59
2017-10-30T05:00:18.797Z,7.58
2017-10-30T05:02:50.116Z,7.56
2017-10-30T05:05:24.137Z,7.56
2017-10-30T05:07:55.941Z,7.57
2017-10-30T05:10:27.483Z,7.56
2017-10-30T05:12:58.892Z,7.55
2017-10-30T05:15:30.602Z,7.55
2017-10-30T05:18:04.311Z,7.49
2017-10-30T05:20:37.891Z,7.50
2017-10-30T05:23:10.420Z,7.49
2017-10-30T05:25:41.851Z,7.45
2017-10-30T05:28:13.450Z,7.45
2017-10-30T05:30:44.797Z,7.45
2017-10-30T05:33:16.138Z,7.43
2017-10-30T05:35:47.940Z,7.41
2017-10-30T05:38:21.556Z,7.41
2017-10-30T05:40:52.920Z,7.46
2017-10-30T05:43:25.033Z,7.46
2017-10-30T05:45:56.432Z,7.50
2017-10-30T05:48:28.324Z,7.56
2017-10-30T05:50:59.823Z,7.52
2017-10-30T05:53:31.283Z,7.49
2017-10-30T05:56:03.650Z,7.49
2017-10-30T05:58:35.055Z,7.51
2017-10-30T06:01:06.399Z,7.56
2017-10-30T06:03:38.000Z,7.59
2017-10-30T06:06:09.348Z,7.68
2017-10-30T06:08:40.735Z,7.73
2017-10-30T06:11:12.962Z,7.76
2017-10-30T06:13:44.299Z,7.75
2017-10-30T06:16:17.506Z,7.79
2017-10-30T06:18:49.167Z,7.79
2017-10-30T06:21:22.049Z,7.79
2017-10-30T06:23:53.943Z,7.75
2017-10-30T06:26:26.428Z,7.74
2017-10-30T06:28:57.879Z,7.73
2017-10-30T06:31:29.531Z,7.74
2017-10-30T06:34:00.980Z,7.76
2017-10-30T06:36:34.044Z,7.83
2017-10-30T06:39:11.601Z,7.91
2017-10-30T06:41:43.499Z,8.05
2017-10-30T06:44:16.580Z,8.23
2017-10-30T06:46:48.511Z,8.38
2017-10-30T06:49:20.867Z,8.54
2017-10-30T06:51:52.525Z,8.66
2017-10-30T06:54:26.116Z,8.73
2017-10-30T06:56:57.527Z,8.85
2017-10-30T06:59:30.494Z,8.95
2017-10-30T07:02:02.806Z,9.00
2017-10-30T07:04:34.458Z,9.11
2017-10-30T07:07:09.429Z,9.17
2017-10-30T07:09:41.649Z,9.25
2017-10-30T07:12:13.540Z,9.28
2017-10-30T07:14:44.867Z,9.31
2017-10-30T07:17:16.274Z,9.38
2017-10-30T07:19:47.903Z,9.49
2017-10-30T07:22:19.314Z,9.63
2017-10-30T07:24:50.743Z,9.76
2017-10-30T07:27:23.324Z,9.92
2017-10-30T07:29:54.789Z,10.01
2017-10-30T07:32:31.029Z,10.04
2017-10-30T07:35:03.567Z,10.27
2017-10-30T07:37:34.932Z,10.39
2017-10-30T07:40:07.686Z,10.43
2017-10-30T07:42:39.761Z,10.40
2017-10-30T07:45:11.227Z,10.47
2017-10-30T07:47:42.620Z,10.52
2017-10-30T07:50:14.495Z,10.66
2017-10-30T07:52:45.969Z,10.79
2017-10-30T07:55:24.386Z,10.91
2017-10-30T07:57:56.443Z,10.93
2017-10-30T08:00:29.156Z,11.02
2017-10-30T08:03:02.320Z,11.21
2017-10-30T08:05:34.243Z,11.26
2017-10-30T08:08:09.996Z,11.30
2017-10-30T08:10:41.847Z,11.38
2017-10-30T08:13:13.613Z,11.42
2017-10-30T08:15:45.244Z,11.51
2017-10-30T08:18:18.217Z,11.50
2017-10-30T08:20:50.439Z,11.63
2017-10-30T08:23:23.172Z,11.69
2017-10-30T08:25:55.144Z,11.56
2017-10-30T08:28:26.997Z,11.55
2017-10-30T08:30:58.828Z,11.55
2017-10-30T08:33:30.911Z,11.56
2017-10-30T08:36:05.439Z,11.63
2017-10-30T08:38:37.431Z,11.63
2017-10-30T08:41:08.979Z,11.66
2017-10-30T08:43:40.680Z,11.80
2017-10-30T08:46:12.342Z,12.00
2017-10-30T08:48:44.649Z,12.25
2017-10-30T08:51:17.086Z,12.51
2017-10-30T08:53:48.580Z,13.20
2017-10-30T08:56:19.997Z,13.59
2017-10-30T08:58:51.457Z,13.73
2017-10-30T09:01:24.218Z,13.84
2017-10-30T09:03:55.920Z,13.73
2017-10-30T09:06:27.428Z,13.74
2017-10-30T09:08:58.907Z,13.96
2017-10-30T09:11:30.736Z,13.60
2017-10-30T09:14:03.635Z,13.50
2017-10-30T09:16:35.782Z,13.45
2017-10-30T09:19:07.746Z,13.35
2017-10-30T09:21:39.719Z,13.15
2017-10-30T09:24:11.227Z,13.16
2017-10-30T09:26:42.960Z,13.15
2017-10-30T09:29:15.635Z,13.23
2017-10-30T09:31:47.342Z,13.31
2017-10-30T09:34:19.811Z,13.47
2017-10-30T09:36:51.260Z,13.73
2017-10-30T09:39:24.720Z,14.00
2017-10-30T09:41:56.531Z,14.26
2017-10-30T09:44:29.829Z,14.37
2017-10-30T09:47:01.966Z,14.49
2017-10-30T09:49:34.144Z,14.54
2017-10-30T09:52:09.141Z,14.15
2017-10-30T09:54:40.833Z,13.96
2017-10-30T09:57:12.568Z,13.86
2017-10-30T09:59:44.277Z,13.69
2017-10-30T10:02:15.711Z,13.64
2017-10-30T10:04:51.976Z,13.59
2017-10-30T10:07:25.448Z,13.60
2017-10-30T10:09:56.968Z,13.82
2017-10-30T10:12:31.052Z,14.12
2017-10-30T10:15:03.388Z,14.22
2017-10-30T10:17:35.052Z,14.28
2017-10-30T10:20:06.830Z,14.21
2017-10-30T10:22:38.316Z,14.22
2017-10-30T10:25:11.566Z,14.26
2017-10-30T10:27:43.896Z,14.19
2017-10-30T10:30:16.609Z,13.96
2017-10-30T10:32:49.654Z,13.89
2017-10-30T10:35:21.394Z,13.94
2017-10-30T10:37:53.554Z,13.96
2017-10-30T10:40:27.933Z,14.06
2017-10-30T10:42:59.319Z,14.16
2017-10-30T10:45:31.369Z,14.30
2017-10-30T10:48:08.288Z,14.42
2017-10-30T10:50:40.203Z,14.73
2017-10-30T10:53:11.577Z,15.10
2017-10-30T10:55:43.042Z,15.50
2017-10-30T10:58:15.385Z,15.87
2017-10-30T11:00:48.308Z,16.25
2017-10-30T11:03:23.770Z,16.58
2017-10-30T11:05:55.660Z,16.34
2017-10-30T11:08:29.869Z,16.03
2017-10-30T11:11:01.703Z,15.82
2017-10-30T11:13:33.235Z,15.66
2017-10-30T11:16:06.191Z,15.44
2017-10-30T11:18:37.738Z,15.10
2017-10-30T11:21:10.174Z,15.10
2017-10-30T11:23:42.079Z,15.11
2017-10-30T11:26:13.565Z,15.32
2017-10-30T11:28:44.955Z,15.73
2017-10-30T11:31:18.571Z,16.42
2017-10-30T11:33:51.315Z,17.40
2017-10-30T11:36:23.326Z,18.58
2017-10-30T11:38:57.681Z,19.63
2017-10-30T11:41:30.001Z,20.01
2017-10-30T11:44:05.127Z,20.27
2017-10-30T11:46:36.534Z,20.56
2017-10-30T11:49:10.569Z,20.67
2017-10-30T11:51:41.938Z,20.51
2017-10-30T11:54:17.988Z,20.06
2017-10-30T11:56:49.788Z,19.62
2017-10-30T11:59:22.337Z,19.11
2017-10-30T12:01:54.150Z,19.47
2017-10-30T12:04:26.822Z,21.41
2017-10-30T12:07:02.184Z,21.62
2017-10-30T12:09:33.906Z,21.40
2017-10-30T12:12:06.909Z,22.10
2017-10-30T12:14:38.619Z,22.60
2017-10-30T12:17:10.078Z,21.58
2017-10-30T12:19:41.863Z,21.62
2017-10-30T12:22:13.636Z,24.69
2017-10-30T12:24:48.558Z,25.50
2017-10-30T12:27:20.584Z,25.08
2017-10-30T12:29:52.300Z,25.73
2017-10-30T12:32:24.867Z,26.26
2017-10-30T12:34:59.102Z,27.26
2017-10-30T12:37:33.654Z,25.80
2017-10-30T12:40:07.712Z,23.74
2017-10-30T12:45:20.809Z,21.75
2017-10-30T12:47:52.273Z,21.27
2017-10-30T12:50:23.619Z,20.73
2017-10-30T12:52:54.960Z,20.58
2017-10-30T12:55:29.703Z,20.80
2017-10-30T12:58:02.992Z,20.70
2017-10-30T13:00:36.299Z,20.08
2017-10-30T13:03:07.698Z,19.34
2017-10-30T13:05:40.282Z,18.46
2017-10-30T13:08:11.716Z,17.91
2017-10-30T13:10:43.050Z,18.71
2017-10-30T13:13:14.558Z,19.06
2017-10-30T13:15:46.102Z,19.40
2017-10-30T13:18:18.319Z,21.60
2017-10-30T13:20:49.748Z,26.15
2017-10-30T13:23:22.228Z,29.57
2017-10-30T13:25:53.696Z,32.18
2017-10-30T13:28:25.295Z,32.87
2017-10-30T13:30:56.753Z,32.56
2017-10-30T13:33:29.001Z,30.02
2017-10-30T13:36:04.612Z,30.16
2017-10-30T13:38:36.505Z,32.57
2017-10-30T13:41:11.779Z,34.49
2017-10-30T13:43:43.098Z,32.57
2017-10-30T13:46:15.938Z,29.40
2017-10-30T13:48:47.753Z,27.41
2017-10-30T13:51:19.271Z,25.02
2017-10-30T13:53:50.712Z,22.65
2017-10-30T13:56:22.558Z,21.03
2017-10-30T13:58:54.040Z,19.92
2017-10-30T14:01:27.409Z,18.98
2017-10-30T14:07:04.829Z,17.56
2017-10-30T14:09:39.719Z,17.01
2017-10-30T14:12:13.528Z,16.63
2017-10-30T14:14:51.632Z,16.39
2017-10-30T14:17:29.347Z,16.18
2017-10-30T14:20:05.669Z,16.00
2017-10-30T14:22:58.255Z,15.89
2017-10-30T14:25:31.061Z,15.85
2017-10-30T14:28:07.050Z,15.92
2017-10-30T14:30:41.756Z,16.07
2017-10-30T14:33:14.527Z,16.13
2017-10-30T14:35:47.942Z,16.28
2017-10-30T14:38:23.576Z,16.60
2017-10-30T14:41:00.052Z,16.84
2017-10-30T14:43:37.244Z,17.09
2017-10-30T14:46:13.006Z,17.11
2017-10-30T14:48:46.659Z,17.14
2017-10-30T14:51:19.502Z,16.95
2017-10-30T14:53:51.277Z,16.69
2017-10-30T14:56:22.801Z,16.34
2017-10-30T14:58:58.899Z,16.06
2017-10-30T15:01:32.830Z,15.80
2017-10-30T15:04:06.953Z,15.55
2017-10-30T15:06:38.916Z,15.31
2017-10-30T15:09:11.316Z,15.05
2017-10-30T15:11:43.093Z,14.90
2017-10-30T15:14:15.271Z,14.72
2017-10-30T15:16:47.534Z,14.56
2017-10-30T15:19:20.685Z,14.48
2017-10-30T15:21:52.761Z,14.36
2017-10-30T15:24:27.314Z,14.26
2017-10-30T15:26:59.623Z,14.21
2017-10-30T15:29:32.110Z,14.16
2017-10-30T15:32:05.239Z,14.10
2017-10-30T15:34:36.760Z,14.01
2017-10-30T15:37:09.200Z,13.93
2017-10-30T15:39:40.518Z,13.82
2017-10-30T15:42:14.150Z,13.76
2017-10-30T15:44:46.036Z,13.63
2017-10-30T15:47:17.356Z,13.51
2017-10-30T15:49:48.982Z,13.41
2017-10-30T15:52:20.683Z,13.37
2017-10-30T15:54:52.074Z,13.36
2017-10-30T15:57:23.490Z,13.27
2017-10-30T15:59:56.387Z,13.17
2017-10-30T16:02:28.532Z,13.09
2017-10-30T16:05:01.700Z,13.04
2017-10-30T16:07:33.508Z,12.95
2017-10-30T16:10:06.487Z,12.93
2017-10-30T16:12:38.198Z,12.87
2017-10-30T16:15:11.408Z,12.85
2017-10-30T16:17:43.385Z,12.79
2017-10-30T16:20:14.753Z,12.75
2017-10-30T16:22:46.925Z,12.74
2017-10-30T16:25:20.818Z,12.70
2017-10-30T16:27:52.160Z,12.67
2017-10-30T16:30:24.450Z,12.67
2017-10-30T16:32:58.708Z,12.69
2017-10-30T16:35:30.299Z,12.66
2017-10-30T16:38:06.564Z,12.65
2017-10-30T16:40:38.671Z,12.66
2017-10-30T16:43:12.799Z,12.65
2017-10-30T16:45:45.350Z,12.67
2017-10-30T16:48:17.541Z,12.66
2017-10-30T16:50:49.683Z,12.60
2017-10-30T16:53:21.228Z,12.56
2017-10-30T16:55:55.487Z,12.53
2017-10-30T16:58:27.044Z,12.51
2017-10-30T17:00:59.099Z,12.52
2017-10-30T17:03:32.119Z,12.45
2017-10-30T17:06:06.633Z,12.38
2017-10-30T17:08:38.291Z,12.35
2017-10-30T17:11:09.660Z,12.34
2017-10-30T17:13:41.004Z,12.31
2017-10-30T17:16:13.256Z,12.33
2017-10-30T17:18:44.634Z,12.30
2017-10-30T17:21:17.448Z,12.31
2017-10-30T17:23:49.189Z,12.34
2017-10-30T17:26:20.548Z,12.34
2017-10-30T17:28:52.372Z,12.36
2017-10-30T17:31:23.776Z,12.40
2017-10-30T17:33:56.153Z,12.39
2017-10-30T17:36:27.688Z,12.39
2017-10-30T17:38:59.953Z,12.36
2017-10-30T17:41:31.371Z,12.37
2017-10-30T17:44:04.840Z,12.35
2017-10-30T17:46:36.516Z,12.32
2017-10-30T17:49:09.744Z,12.31
2017-10-30T17:51:41.601Z,12.30
2017-10-30T17:54:14.457Z,12.28
2017-10-30T17:56:46.892Z,12.23
2017-10-30T17:59:18.766Z,12.21
2017-10-30T18:01:51.577Z,12.19
2017-10-30T18:04:24.595Z,12.18
2017-10-30T18:07:00.023Z,12.14
2017-10-30T18:09:33.425Z,12.11
2017-10-30T18:12:07.228Z,12.08
2017-10-30T18:14:40.508Z,12.08
2017-10-30T18:17:13.370Z,12.08
2017-10-30T18:19:45.139Z,12.06
2017-10-30T18:22:22.657Z,12.01
2017-10-30T18:24:54.351Z,12.00
2017-10-30T18:27:26.487Z,11.93
2017-10-30T18:29:59.172Z,11.86
2017-10-30T18:32:30.999Z,11.85
2017-10-30T18:35:05.427Z,11.85
2017-10-30T18:37:37.750Z,11.86
2017-10-30T18:40:10.316Z,11.86
2017-10-30T18:42:41.799Z,11.92
2017-10-30T18:45:13.960Z,11.93
2017-10-30T18:47:46.801Z,11.90
2017-10-30T18:50:18.187Z,11.88
2017-10-30T18:52:49.583Z,11.85
2017-10-30T18:55:21.727Z,11.84
2017-10-30T18:57:53.403Z,11.80
2017-10-30T19:00:26.867Z,11.80
2017-10-30T19:03:00.217Z,11.83
2017-10-30T19:05:32.257Z,11.83
2017-10-30T19:08:06.282Z,11.81
2017-10-30T19:10:38.276Z,11.80
2017-10-30T19:13:10.239Z,11.77
2017-10-30T19:15:42.171Z,11.80
2017-10-30T19:18:13.891Z,11.80
2017-10-30T19:20:46.323Z,11.79
2017-10-30T19:23:17.781Z,11.81
2017-10-30T19:25:51.547Z,11.82
2017-10-30T19:28:24.559Z,11.82
2017-10-30T19:30:56.654Z,11.78
2017-10-30T19:33:29.289Z,11.78
2017-10-30T19:36:00.828Z,11.79
2017-10-30T19:38:34.405Z,11.76
2017-10-30T19:41:07.107Z,11.75
2017-10-30T19:43:40.374Z,11.68
2017-10-30T19:46:13.391Z,11.67
2017-10-30T19:48:45.678Z,11.63
2017-10-30T19:51:17.529Z,11.61
2017-10-30T19:53:50.315Z,11.59
2017-10-30T19:56:23.061Z,11.53
2017-10-30T19:58:54.516Z,11.48
2017-10-30T20:01:27.126Z,11.39
2017-10-30T20:03:59.086Z,11.32
2017-10-30T20:06:35.810Z,11.24
2017-10-30T20:09:11.712Z,11.19
2017-10-30T20:12:47.563Z,11.14
2017-10-30T20:15:19.268Z,11.09
2017-10-30T20:17:51.167Z,11.07
2017-10-30T20:20:24.168Z,11.06
2017-10-30T20:22:58.524Z,11.02
2017-10-30T20:25:29.958Z,10.95
2017-10-30T20:28:06.559Z,10.92
2017-10-30T20:30:38.935Z,10.88
2017-10-30T20:33:10.793Z,10.86
2017-10-30T20:35:44.781Z,10.81
2017-10-30T20:38:16.562Z,10.74
2017-10-30T20:40:48.007Z,10.71
2017-10-30T20:43:20.528Z,10.69
2017-10-30T20:45:54.065Z,10.65
2017-10-30T20:48:25.674Z,10.61
2017-10-30T20:50:58.306Z,10.55
2017-10-30T20:53:30.369Z,10.56
2017-10-30T20:56:05.923Z,10.53
2017-10-30T20:58:39.729Z,10.46
2017-10-30T21:01:11.330Z,10.42
2017-10-30T21:03:42.888Z,10.36
2017-10-30T21:06:14.687Z,10.31
2017-10-30T21:08:47.086Z,10.27
2017-10-30T21:11:19.500Z,10.23
2017-10-30T21:13:51.307Z,10.20
2017-10-30T21:16:22.840Z,10.17
2017-10-30T21:18:54.461Z,10.10
2017-10-30T21:21:25.897Z,10.09
2017-10-30T21:23:58.473Z,10.06
2017-10-30T21:26:30.198Z,10.01
2017-10-30T21:29:03.575Z,10.01
2017-10-30T21:31:35.576Z,10.00
2017-10-30T21:34:09.201Z,9.96
2017-10-30T21:36:41.209Z,9.93
2017-10-30T21:39:13.261Z,9.88
2017-10-30T21:41:45.976Z,9.83
2017-10-30T21:44:18.608Z,9.81
2017-10-30T21:46:51.801Z,9.76
2017-10-30T21:49:23.236Z,9.73
2017-10-30T21:51:55.112Z,9.69
2017-10-30T21:54:27.395Z,9.68
2017-10-30T21:56:59.842Z,9.64
2017-10-30T21:59:32.375Z,9.58
2017-10-30T22:02:09.556Z,9.59
2017-10-30T22:04:40.938Z,9.59
2017-10-30T22:07:14.419Z,9.55
2017-10-30T22:09:45.804Z,9.52
2017-10-30T22:12:18.331Z,9.48
2017-10-30T22:14:50.242Z,9.44
2017-10-30T22:17:22.452Z,9.37
2017-10-30T22:19:55.238Z,9.35
2017-10-30T22:22:27.405Z,9.34
2017-10-30T22:25:00.147Z,9.33
2017-10-30T22:27:32.824Z,9.31
2017-10-30T22:30:07.542Z,9.30
2017-10-30T22:32:39.220Z,9.28
2017-10-30T22:35:13.784Z,9.28
2017-10-30T22:37:45.167Z,9.27
2017-10-30T22:40:18.931Z,9.28
2017-10-30T22:42:50.637Z,9.26
2017-10-30T22:45:24.131Z,9.24
2017-10-30T22:47:57.104Z,9.27
2017-10-30T22:50:29.271Z,9.26
2017-10-30T22:53:13.337Z,9.24
2017-10-30T22:55:45.135Z,9.23
2017-10-30T22:58:17.239Z,9.23
2017-10-30T23:00:48.662Z,9.22
2017-10-30T23:03:21.039Z,9.19
2017-10-30T23:05:52.787Z,9.17
2017-10-30T23:10:58.699Z,9.13
2017-10-30T23:13:30.522Z,9.11
2017-10-30T23:16:05.187Z,9.09
2017-10-30T23:18:37.312Z,9.08
2017-10-30T23:21:10.349Z,9.05
2017-10-30T23:23:45.543Z,9.03
2017-10-30T23:26:18.248Z,9.03
2017-10-30T23:28:50.519Z,9.00
2017-10-30T23:31:24.608Z,8.95
2017-10-30T23:33:56.298Z,8.92
2017-10-30T23:36:29.742Z,8.90
2017-10-30T23:39:04.329Z,8.87
2017-10-30T23:41:36.255Z,8.87
2017-10-30T23:44:13.552Z,8.84
2017-10-30T23:46:45.332Z,8.85
2017-10-30T23:49:17.969Z,8.87
2017-10-30T23:51:50.668Z,8.86
2017-10-30T23:54:25.906Z,8.84
2017-10-30T23:56:57.327Z,8.78
2017-10-30T23:59:28.934Z,8.76
